Time;durP1;ratioP1;P1;durP2;ratioP2;P2;SDS_P1;SDS_P2;PMS_P1;PMS_P2;Temp;Humidity;BMP_temperature;BMP_pressure;BME280_temperature;BME280_humidity;BME280_pressure;Samples;Min_cycle;Max_cycle;Signal;HPM_P1;HPM_P2
2021/05/04 00:01:54;;;;;;;6.80;2.03;;;8.20;99.90;;;;;;5035890;28;20033;-76
2021/05/04 00:04:20;;;;;;;6.32;1.90;;;8.20;99.90;;;;;;5042169;28;20033;-77
2021/05/04 00:06:45;;;;;;;4.55;2.13;;;8.20;99.90;;;;;;5034040;28;20032;-76
2021/05/04 00:09:11;;;;;;;6.70;2.05;;;8.10;99.90;;;;;;5038823;28;20037;-77
2021/05/04 00:11:37;;;;;;;6.13;2.30;;;8.00;99.90;;;;;;5039076;28;20025;-76
2021/05/04 00:14:03;;;;;;;3.88;1.50;;;8.10;99.90;;;;;;5035594;28;20106;-77
2021/05/04 00:16:29;;;;;;;4.70;1.77;;;8.00;99.90;;;;;;5037878;28;20036;-77
2021/05/04 00:18:54;;;;;;;6.57;1.55;;;7.90;99.90;;;;;;5036495;28;20044;-77
2021/05/04 00:21:20;;;;;;;4.35;1.98;;;7.90;99.90;;;;;;5034484;28;20451;-76
2021/05/04 00:23:46;;;;;;;3.50;1.70;;;7.80;99.90;;;;;;5034213;28;20022;-77
2021/05/04 00:26:11;;;;;;;4.85;1.70;;;7.80;99.90;;;;;;5030188;28;20132;-77
2021/05/04 00:28:37;;;;;;;4.60;1.83;;;7.80;99.90;;;;;;5036939;28;20061;-77
2021/05/04 00:31:03;;;;;;;5.28;1.90;;;7.90;99.90;;;;;;5032299;28;20155;-77
2021/05/04 00:33:29;;;;;;;6.30;2.05;;;7.90;99.90;;;;;;5036053;28;20029;-77
2021/05/04 00:35:57;;;;;;;6.80;3.30;;;7.90;99.90;;;;;;5032491;28;20535;-76
2021/05/04 00:38:24;;;;;;;12.55;3.92;;;7.90;99.90;;;;;;5028020;28;20033;-77
2021/05/04 00:40:50;;;;;;;5.78;2.30;;;7.80;99.90;;;;;;5034852;28;20032;-77
2021/05/04 00:43:16;;;;;;;3.97;1.60;;;7.80;99.90;;;;;;5037064;28;20028;-77
2021/05/04 00:45:42;;;;;;;3.53;1.52;;;7.70;99.90;;;;;;5035696;28;20076;-77
2021/05/04 00:48:08;;;;;;;5.25;2.38;;;7.70;99.90;;;;;;5042110;28;20037;-77
2021/05/04 00:50:34;;;;;;;4.38;1.80;;;7.60;99.90;;;;;;5038840;28;20045;-77
2021/05/04 00:53:00;;;;;;;3.70;1.58;;;7.60;99.90;;;;;;5034401;28;20028;-77
2021/05/04 00:55:26;;;;;;;7.50;1.90;;;7.40;99.90;;;;;;5039138;28;20514;-78
2021/05/04 00:57:55;;;;;;;5.20;2.17;;;7.40;99.90;;;;;;5039475;28;20069;-77
2021/05/04 01:00:20;;;;;;;8.48;2.15;;;7.50;99.90;;;;;;5035215;28;20449;-77
2021/05/04 01:02:47;;;;;;;6.82;3.03;;;7.50;99.90;;;;;;5037454;28;20056;-77
2021/05/04 01:05:13;;;;;;;6.45;2.70;;;7.50;99.90;;;;;;5036569;28;20501;-77
2021/05/04 01:07:39;;;;;;;4.43;2.28;;;7.50;99.90;;;;;;5034487;28;20435;-77
2021/05/04 01:10:06;;;;;;;5.95;2.10;;;7.30;99.90;;;;;;5036597;28;20042;-77
2021/05/04 01:12:32;;;;;;;5.63;2.45;;;7.30;99.90;;;;;;5033939;28;20543;-77
2021/05/04 01:14:59;;;;;;;4.15;2.10;;;7.30;99.90;;;;;;5038102;28;20073;-77
2021/05/04 01:17:25;;;;;;;6.03;1.95;;;7.30;99.90;;;;;;5041471;28;20075;-77
2021/05/04 01:19:50;;;;;;;6.32;2.33;;;7.30;99.90;;;;;;5036301;28;20034;-77
2021/05/04 01:22:16;;;;;;;4.15;1.85;;;7.30;99.90;;;;;;5038792;28;20029;-77
2021/05/04 01:24:42;;;;;;;7.68;2.50;;;7.20;99.90;;;;;;5032445;28;20499;-77
2021/05/04 01:27:08;;;;;;;6.15;2.67;;;7.20;99.90;;;;;;5031906;28;20381;-77
2021/05/04 01:29:34;;;;;;;4.35;2.65;;;7.20;99.90;;;;;;5014434;28;20155;-77
2021/05/04 01:32:00;;;;;;;4.03;2.10;;;7.20;99.90;;;;;;5033383;28;20132;-77
2021/05/04 01:34:25;;;;;;;4.38;1.90;;;7.10;99.90;;;;;;5035269;28;20037;-77
2021/05/04 01:36:51;;;;;;;5.63;2.22;;;7.10;99.90;;;;;;5032802;28;20029;-76
2021/05/04 01:39:18;;;;;;;5.20;2.53;;;7.10;99.90;;;;;;5035615;28;20486;-77
2021/05/04 01:41:43;;;;;;;5.47;1.95;;;7.00;99.90;;;;;;5037785;28;20028;-76
2021/05/04 01:44:10;;;;;;;3.67;2.03;;;6.90;99.90;;;;;;5036639;28;20037;-76
2021/05/04 01:46:36;;;;;;;5.65;2.25;;;6.90;99.90;;;;;;5036790;28;20495;-76
2021/05/04 01:49:04;;;;;;;5.45;2.17;;;7.00;99.90;;;;;;5036581;28;20040;-77
2021/05/04 01:51:30;;;;;;;4.95;1.90;;;7.00;99.90;;;;;;5036903;28;20025;-77
2021/05/04 01:53:57;;;;;;;5.32;1.85;;;7.00;99.90;;;;;;5040424;28;20037;-76
2021/05/04 01:56:23;;;;;;;5.00;1.90;;;6.90;99.90;;;;;;5039480;28;20076;-76
2021/05/04 01:58:49;;;;;;;5.07;1.92;;;6.90;99.90;;;;;;5041463;28;21960;-77
2021/05/04 02:01:16;;;;;;;4.47;2.10;;;6.80;99.90;;;;;;5034636;28;20582;-76
2021/05/04 02:03:42;;;;;;;6.55;2.28;;;6.90;99.90;;;;;;5041137;28;20103;-77
2021/05/04 02:06:07;;;;;;;5.43;1.92;;;6.70;99.90;;;;;;5038649;23;20062;-76
2021/05/04 02:08:33;;;;;;;4.15;1.55;;;6.70;99.90;;;;;;5025530;28;20632;-77
2021/05/04 02:10:59;;;;;;;9.70;2.03;;;6.70;99.90;;;;;;5019311;28;20030;-77
2021/05/04 02:13:25;;;;;;;4.82;2.30;;;6.60;99.90;;;;;;5025699;28;20783;-77
2021/05/04 02:15:51;;;;;;;4.35;2.08;;;6.70;99.90;;;;;;5027136;28;20593;-77
2021/05/04 02:18:17;;;;;;;4.57;1.98;;;6.60;99.90;;;;;;5006546;28;20080;-77
2021/05/04 02:20:43;;;;;;;6.07;2.40;;;6.60;99.90;;;;;;5024255;28;20079;-77
2021/05/04 02:23:09;;;;;;;5.65;2.28;;;6.70;99.90;;;;;;5021536;28;20033;-77
2021/05/04 02:25:35;;;;;;;5.60;1.90;;;6.80;99.90;;;;;;5018011;28;20393;-77
2021/05/04 02:28:03;;;;;;;5.35;2.13;;;6.60;99.90;;;;;;5015615;28;20069;-77
2021/05/04 02:30:32;;;;;;;8.40;2.08;;;6.60;99.90;;;;;;5019581;28;20037;-77
2021/05/04 02:32:58;;;;;;;6.88;2.53;;;6.70;99.90;;;;;;5022368;28;20323;-77
2021/05/04 02:35:23;;;;;;;3.85;2.03;;;6.70;99.90;;;;;;5022833;28;20052;-77
2021/05/04 02:37:49;;;;;;;6.95;2.28;;;6.60;99.90;;;;;;5019642;28;20060;-77
2021/05/04 02:40:15;;;;;;;5.85;2.63;;;6.60;99.90;;;;;;5017583;28;20131;-77
2021/05/04 02:42:41;;;;;;;4.25;2.20;;;6.70;99.90;;;;;;5012779;28;20435;-77
2021/05/04 02:45:07;;;;;;;4.38;1.90;;;6.70;99.90;;;;;;5016687;28;20084;-77
2021/05/04 02:47:32;;;;;;;7.25;2.25;;;6.70;99.90;;;;;;5021122;28;20030;-77
2021/05/04 02:49:58;;;;;;;9.23;2.45;;;6.70;99.90;;;;;;5020980;28;20088;-77
2021/05/04 02:52:24;;;;;;;6.07;2.60;;;6.60;99.90;;;;;;5023278;28;20122;-77
2021/05/04 02:54:49;;;;;;;8.50;2.60;;;6.70;99.90;;;;;;5018534;28;20636;-77
2021/05/04 02:57:16;;;;;;;7.38;2.90;;;6.70;99.90;;;;;;5019918;28;20068;-77
2021/05/04 02:59:42;;;;;;;6.68;2.30;;;6.50;99.90;;;;;;5013657;28;20053;-77
2021/05/04 03:02:08;;;;;;;10.02;2.47;;;6.50;99.90;;;;;;5017660;28;20105;-77
2021/05/04 03:04:33;;;;;;;5.32;2.17;;;6.50;99.90;;;;;;5014791;28;20116;-77
2021/05/04 03:06:59;;;;;;;4.68;2.22;;;6.50;99.90;;;;;;5013181;28;20029;-77
2021/05/04 03:09:24;;;;;;;6.80;2.42;;;6.60;99.90;;;;;;5010818;28;20034;-77
2021/05/04 03:11:50;;;;;;;7.00;2.72;;;6.40;99.90;;;;;;5012123;28;20030;-76
2021/05/04 03:14:16;;;;;;;13.73;3.38;;;6.50;99.90;;;;;;5014720;28;20112;-77
2021/05/04 03:16:41;;;;;;;6.38;2.63;;;6.50;99.90;;;;;;5011428;28;20030;-76
2021/05/04 03:19:07;;;;;;;5.30;2.83;;;6.50;99.90;;;;;;5016351;28;20044;-76
2021/05/04 03:21:32;;;;;;;6.88;2.50;;;6.50;99.90;;;;;;5025170;28;20017;-77
2021/05/04 03:23:58;;;;;;;7.13;2.45;;;6.50;99.90;;;;;;5023192;28;20033;-77
2021/05/04 03:26:24;;;;;;;6.70;2.53;;;6.40;99.90;;;;;;5021390;28;20423;-77
2021/05/04 03:28:49;;;;;;;7.25;2.38;;;6.30;99.90;;;;;;5021356;28;20045;-77
2021/05/04 03:31:15;;;;;;;5.68;2.08;;;6.40;99.90;;;;;;5017394;28;20613;-77
2021/05/04 03:33:40;;;;;;;4.57;2.03;;;6.40;99.90;;;;;;5012348;28;20038;-77
2021/05/04 03:36:06;;;;;;;5.53;2.78;;;6.40;99.90;;;;;;5019271;28;20147;-77
2021/05/04 03:38:33;;;;;;;5.03;2.30;;;6.40;99.90;;;;;;5022470;28;20357;-77
2021/05/04 03:40:59;;;;;;;6.78;2.55;;;6.40;99.90;;;;;;5014078;28;20022;-77
2021/05/04 03:43:25;;;;;;;7.53;2.30;;;6.40;99.90;;;;;;4995236;28;20036;-77
2021/05/04 03:45:51;;;;;;;7.65;2.75;;;6.30;99.90;;;;;;5014009;28;20047;-77
2021/05/04 03:48:16;;;;;;;4.93;2.70;;;6.30;99.90;;;;;;5007179;28;20030;-77
2021/05/04 03:50:42;;;;;;;7.45;2.65;;;6.30;99.90;;;;;;5012382;28;20037;-77
2021/05/04 03:53:08;;;;;;;6.65;2.78;;;6.30;99.90;;;;;;5006894;28;20234;-77
2021/05/04 03:55:33;;;;;;;7.38;2.63;;;6.20;99.90;;;;;;5012740;28;20088;-77
2021/05/04 03:57:59;;;;;;;4.60;2.38;;;6.10;99.90;;;;;;5015817;28;20034;-76
2021/05/04 04:00:25;;;;;;;7.85;2.92;;;6.20;99.90;;;;;;5010151;28;20391;-77
2021/05/04 04:02:52;;;;;;;6.47;2.70;;;6.20;99.90;;;;;;5012334;28;20025;-77
2021/05/04 04:05:17;;;;;;;9.95;3.08;;;6.10;99.90;;;;;;5006752;28;20138;-77
2021/05/04 04:07:43;;;;;;;6.70;2.58;;;6.10;99.90;;;;;;5009355;28;20108;-77
2021/05/04 04:10:11;;;;;;;11.02;3.45;;;6.00;99.90;;;;;;5009991;28;20034;-77
2021/05/04 04:12:37;;;;;;;6.63;2.72;;;6.10;99.90;;;;;;5008261;28;20466;-77
2021/05/04 04:15:03;;;;;;;8.55;3.15;;;6.00;99.90;;;;;;5005917;28;20034;-77
2021/05/04 04:17:28;;;;;;;8.55;3.15;;;6.10;99.90;;;;;;5010154;28;20030;-77
2021/05/04 04:19:54;;;;;;;6.13;2.65;;;6.00;99.90;;;;;;5009191;28;20034;-77
2021/05/04 04:22:20;;;;;;;6.97;2.75;;;6.10;99.90;;;;;;5016937;28;20415;-77
2021/05/04 04:24:46;;;;;;;8.07;2.80;;;6.10;99.90;;;;;;5006362;28;20038;-77
2021/05/04 04:27:11;;;;;;;10.25;3.17;;;6.10;99.90;;;;;;5013877;28;20034;-77
2021/05/04 04:29:37;;;;;;;7.57;3.88;;;6.10;99.90;;;;;;5006634;28;20083;-77
2021/05/04 04:32:04;;;;;;;8.38;2.95;;;6.10;99.90;;;;;;5008550;28;20499;-77
2021/05/04 04:34:30;;;;;;;10.60;2.30;;;6.10;99.90;;;;;;5006282;28;20026;-77
2021/05/04 04:36:55;;;;;;;6.82;2.92;;;6.00;99.90;;;;;;5006493;28;20048;-77
2021/05/04 04:39:21;;;;;;;10.23;2.42;;;6.00;99.90;;;;;;5013451;28;20037;-77
2021/05/04 04:41:47;;;;;;;4.60;2.50;;;5.90;99.90;;;;;;5004700;28;20339;-77
2021/05/04 04:44:13;;;;;;;7.50;2.78;;;5.90;99.90;;;;;;5005592;28;20313;-77
2021/05/04 04:46:40;;;;;;;6.22;2.13;;;5.90;99.90;;;;;;5003902;28;20184;-77
2021/05/04 04:49:10;;;;;;;6.18;2.38;;;6.20;99.90;;;;;;5020453;28;20044;-77
2021/05/04 04:51:36;;;;;;;6.78;2.72;;;6.30;99.90;;;;;;5013419;28;20034;-77
2021/05/04 04:54:03;;;;;;;6.88;2.63;;;6.30;99.90;;;;;;5019332;28;20124;-77
2021/05/04 04:56:28;;;;;;;6.80;3.00;;;6.20;99.90;;;;;;5011947;28;20034;-77
2021/05/04 04:58:54;;;;;;;7.88;3.03;;;6.40;99.90;;;;;;5019214;28;20029;-77
2021/05/04 05:01:20;;;;;;;14.82;3.90;;;6.40;99.90;;;;;;5015987;28;20041;-77
2021/05/04 05:03:45;;;;;;;10.63;2.97;;;6.50;99.90;;;;;;5014429;28;20126;-77
2021/05/04 05:06:11;;;;;;;11.90;3.45;;;6.50;99.90;;;;;;5013994;28;20063;-77
2021/05/04 05:08:36;;;;;;;14.18;3.60;;;6.50;99.90;;;;;;5017618;28;20366;-77
2021/05/04 05:11:02;;;;;;;11.80;3.20;;;6.50;99.90;;;;;;5015488;28;20033;-77
2021/05/04 05:13:28;;;;;;;8.52;3.10;;;6.30;99.90;;;;;;5018018;28;20467;-77
2021/05/04 05:15:53;;;;;;;11.20;2.78;;;6.40;99.90;;;;;;5018075;28;20540;-76
2021/05/04 05:18:19;;;;;;;9.57;3.95;;;6.40;99.90;;;;;;5011141;28;20022;-77
2021/05/04 05:20:45;;;;;;;7.90;3.22;;;6.50;99.90;;;;;;5016036;28;20301;-77
2021/05/04 05:23:12;;;;;;;11.25;3.70;;;6.60;99.90;;;;;;5018938;28;20083;-77
2021/05/04 05:25:39;;;;;;;7.72;3.28;;;6.70;99.90;;;;;;5018684;28;20311;-77
2021/05/04 05:28:05;;;;;;;7.15;3.15;;;6.70;99.90;;;;;;5017637;28;20048;-78
2021/05/04 05:30:31;;;;;;;9.63;3.35;;;6.80;99.90;;;;;;5019439;28;20068;-77
2021/05/04 05:32:57;;;;;;;10.25;3.40;;;7.20;99.90;;;;;;5020002;28;20064;-77
2021/05/04 05:35:22;;;;;;;9.82;2.90;;;7.60;99.90;;;;;;5022953;28;20025;-80
2021/05/04 05:37:49;;;;;;;10.60;3.10;;;8.00;99.90;;;;;;5016950;28;20033;-78
2021/05/04 05:40:15;;;;;;;9.18;3.28;;;8.00;99.90;;;;;;5024212;28;20072;-78
2021/05/04 05:42:41;;;;;;;16.88;3.05;;;8.60;99.90;;;;;;5022312;28;20471;-79
2021/05/04 05:45:07;;;;;;;7.00;3.03;;;8.70;99.90;;;;;;5026123;28;20079;-78
2021/05/04 05:47:33;;;;;;;11.02;3.97;;;8.80;99.90;;;;;;5020838;28;20033;-78
2021/05/04 05:49:58;;;;;;;6.70;3.45;;;8.80;99.90;;;;;;5021783;28;20451;-79
2021/05/04 05:52:24;;;;;;;15.45;4.05;;;8.80;99.90;;;;;;5022572;28;20029;-78
2021/05/04 05:54:50;;;;;;;10.60;3.38;;;8.80;99.90;;;;;;5021661;28;20041;-78
2021/05/04 05:57:15;;;;;;;13.65;3.13;;;8.30;99.90;;;;;;5020813;28;20458;-78
2021/05/04 05:59:41;;;;;;;16.42;3.80;;;8.60;99.90;;;;;;5021897;28;20035;-78
2021/05/04 06:02:07;;;;;;;15.73;4.32;;;8.80;99.90;;;;;;5021944;28;20060;-78
2021/05/04 06:04:33;;;;;;;13.70;4.45;;;8.80;99.90;;;;;;5021179;28;20131;-78
2021/05/04 06:06:58;;;;;;;10.40;3.92;;;8.80;99.90;;;;;;5020310;28;20554;-78
2021/05/04 06:09:24;;;;;;;8.60;3.53;;;8.80;99.90;;;;;;5020316;28;20056;-79
2021/05/04 06:11:50;;;;;;;16.83;3.80;;;9.20;99.90;;;;;;5018369;28;20515;-78
2021/05/04 06:14:16;;;;;;;9.88;2.95;;;9.40;99.90;;;;;;5015615;28;20431;-78
2021/05/04 06:16:43;;;;;;;11.68;3.20;;;9.50;99.90;;;;;;5024830;28;20079;-78
2021/05/04 06:19:09;;;;;;;11.30;3.42;;;9.50;99.90;;;;;;5021317;28;20406;-78
2021/05/04 06:21:34;;;;;;;12.70;3.67;;;9.80;99.90;;;;;;5019400;28;20026;-78
2021/05/04 06:24:00;;;;;;;11.98;3.90;;;9.80;99.90;;;;;;5022463;28;20064;-78
2021/05/04 06:26:25;;;;;;;21.70;4.00;;;10.20;99.90;;;;;;5021137;28;20462;-78
2021/05/04 06:28:51;;;;;;;14.32;2.95;;;10.40;99.90;;;;;;5022893;28;20120;-78
2021/05/04 06:31:19;;;;;;;13.95;3.00;;;10.80;99.90;;;;;;5023840;28;20044;-78
2021/05/04 06:33:45;;;;;;;10.55;3.25;;;10.90;99.90;;;;;;5023379;28;20115;-78
2021/05/04 06:36:11;;;;;;;8.98;2.85;;;11.30;99.90;;;;;;5021055;28;20045;-79
2021/05/04 06:38:38;;;;;;;10.65;2.08;;;11.30;99.90;;;;;;5023293;28;20030;-78
2021/05/04 06:41:04;;;;;;;11.65;3.20;;;11.40;99.90;;;;;;5022622;28;20530;-79
2021/05/04 06:43:30;;;;;;;10.05;2.60;;;11.70;99.90;;;;;;5022500;28;20108;-79
2021/05/04 06:45:56;;;;;;;11.35;2.72;;;12.20;99.90;;;;;;5022290;28;20038;-78
2021/05/04 06:48:22;;;;;;;4.72;1.30;;;12.50;99.90;;;;;;5022162;28;20433;-78
2021/05/04 06:50:48;;;;;;;9.40;1.52;;;12.40;99.90;;;;;;5024471;28;20037;-78
2021/05/04 06:53:13;;;;;;;5.65;1.77;;;12.50;99.90;;;;;;5022668;28;20265;-78
2021/05/04 06:55:39;;;;;;;6.55;2.05;;;12.50;99.90;;;;;;5021282;28;20088;-78
2021/05/04 06:58:05;;;;;;;8.98;2.33;;;12.90;99.90;;;;;;5023435;28;20121;-79
2021/05/04 07:00:31;;;;;;;10.02;2.60;;;13.10;99.90;;;;;;5021720;28;20532;-78
2021/05/04 07:02:56;;;;;;;10.07;3.10;;;13.60;99.90;;;;;;5020981;28;20037;-79
2021/05/04 07:05:22;;;;;;;10.75;2.58;;;13.90;99.90;;;;;;5022183;28;20093;-79
2021/05/04 07:07:48;;;;;;;8.75;2.08;;;14.10;99.90;;;;;;5019817;28;20052;-79
2021/05/04 07:10:14;;;;;;;4.72;1.80;;;14.40;99.90;;;;;;5022974;28;20459;-78
2021/05/04 07:12:41;;;;;;;7.88;1.73;;;14.50;99.90;;;;;;5019767;28;20049;-79
2021/05/04 07:15:08;;;;;;;7.93;2.33;;;14.60;99.90;;;;;;5019446;28;20076;-79
2021/05/04 07:17:33;;;;;;;6.70;2.13;;;14.80;99.90;;;;;;5016353;28;20774;-78
2021/05/04 07:19:59;;;;;;;16.95;2.05;;;14.90;99.90;;;;;;5018362;28;20030;-79
2021/05/04 07:22:27;;;;;;;6.50;1.70;;;14.90;99.90;;;;;;5020668;28;20037;-79
2021/05/04 07:24:53;;;;;;;5.57;2.00;;;15.10;99.90;;;;;;5018040;28;20455;-78
2021/05/04 07:27:20;;;;;;;16.55;2.05;;;14.80;99.90;;;;;;5019378;28;20457;-78
2021/05/04 07:29:46;;;;;;;6.57;2.17;;;14.20;99.90;;;;;;5020730;28;20053;-78
2021/05/04 07:32:12;;;;;;;8.98;2.58;;;14.40;99.90;;;;;;5020121;28;20025;-79
2021/05/04 07:34:37;;;;;;;8.73;2.10;;;14.80;99.70;;;;;;5020756;28;20056;-78
2021/05/04 07:37:04;;;;;;;5.45;2.05;;;14.90;99.20;;;;;;5020535;28;20505;-79
2021/05/04 07:39:30;;;;;;;7.25;2.03;;;15.00;98.90;;;;;;5020855;28;20037;-79
2021/05/04 07:41:56;;;;;;;8.98;1.98;;;15.10;98.40;;;;;;5022325;28;20033;-78
2021/05/04 07:44:22;;;;;;;9.68;2.22;;;15.00;98.00;;;;;;5021625;28;20087;-78
2021/05/04 07:46:48;;;;;;;10.45;1.92;;;15.10;98.70;;;;;;5020823;28;20053;-78
2021/05/04 07:49:21;;;;;;;6.97;1.80;;;15.00;97.60;;;;;;5020169;28;20041;-79
2021/05/04 07:51:46;;;;;;;5.43;1.77;;;15.10;97.90;;;;;;5022176;28;20037;-78
2021/05/04 07:54:12;;;;;;;5.00;2.08;;;14.90;97.50;;;;;;5022374;28;20087;-78
2021/05/04 07:56:39;;;;;;;5.18;1.63;;;15.00;97.60;;;;;;5021879;28;20048;-78
2021/05/04 07:59:05;;;;;;;7.53;1.58;;;15.00;97.70;;;;;;5020132;28;20036;-77
2021/05/04 08:01:31;;;;;;;10.48;1.58;;;15.00;98.40;;;;;;5019276;28;20018;-78
2021/05/04 08:03:56;;;;;;;5.95;2.08;;;15.10;97.60;;;;;;5019392;28;20405;-77
2021/05/04 08:06:22;;;;;;;7.65;1.98;;;15.20;98.20;;;;;;5019128;28;20033;-78
2021/05/04 08:08:48;;;;;;;5.60;2.08;;;15.30;99.90;;;;;;5022041;28;20061;-79
2021/05/04 08:11:13;;;;;;;8.50;1.80;;;15.40;98.70;;;;;;5021351;28;20037;-78
2021/05/04 08:13:39;;;;;;;5.18;1.67;;;15.40;98.20;;;;;;5018606;28;20037;-79
2021/05/04 08:16:08;;;;;;;5.82;1.77;;;15.40;96.50;;;;;;5018656;28;20064;-79
2021/05/04 08:18:34;;;;;;;5.07;1.95;;;15.30;97.70;;;;;;5021533;28;20033;-79
2021/05/04 08:21:00;;;;;;;5.63;1.80;;;15.60;99.20;;;;;;5019725;28;20057;-79
2021/05/04 08:23:26;;;;;;;5.13;1.65;;;15.80;98.60;;;;;;5022652;28;20147;-79
2021/05/04 08:25:52;;;;;;;6.63;1.95;;;15.90;97.50;;;;;;5020177;28;20474;-79
2021/05/04 08:28:19;;;;;;;8.90;2.30;;;15.90;98.50;;;;;;5018089;28;20143;-79
2021/05/04 08:30:45;;;;;;;7.72;2.03;;;15.60;97.70;;;;;;5016941;28;20341;-79
2021/05/04 08:33:11;;;;;;;9.73;1.67;;;15.80;97.90;;;;;;5017412;28;20037;-79
2021/05/04 08:35:36;;;;;;;6.47;2.15;;;15.70;97.40;;;;;;5018984;28;20441;-78
2021/05/04 08:38:02;;;;;;;8.25;2.08;;;16.00;97.20;;;;;;5018648;28;20760;-79
2021/05/04 08:40:27;;;;;;;13.98;2.58;;;16.20;98.10;;;;;;5018116;28;20029;-79
2021/05/04 08:42:53;;;;;;;7.50;2.00;;;16.40;97.00;;;;;;5019204;28;20466;-79
2021/05/04 08:45:20;;;;;;;7.22;2.08;;;16.60;96.60;;;;;;5018414;28;20076;-79
2021/05/04 08:47:48;;;;;;;6.55;1.98;;;16.70;94.50;;;;;;5018300;28;20132;-78
2021/05/04 08:50:19;;;;;;;5.72;1.50;;;16.50;92.80;;;;;;5020780;28;20037;-79
2021/05/04 08:52:45;;;;;;;9.00;1.98;;;16.30;93.30;;;;;;5020253;28;20033;-79
2021/05/04 08:55:13;;;;;;;5.45;1.70;;;16.30;93.60;;;;;;5013915;28;20087;-79
2021/05/04 08:57:39;;;;;;;5.65;1.50;;;16.50;92.20;;;;;;5017454;28;20507;-79
2021/05/04 09:00:10;;;;;;;7.80;1.80;;;16.70;92.30;;;;;;5021130;28;20399;-78
2021/05/04 09:02:57;;;;;;;4.63;1.58;;;16.70;92.40;;;;;;5019435;28;20033;-78
2021/05/04 09:05:23;;;;;;;4.78;1.50;;;16.30;92.80;;;;;;5018007;28;20042;-79
2021/05/04 09:07:50;;;;;;;6.00;1.38;;;16.60;92.20;;;;;;5022982;28;20033;-79
2021/05/04 09:10:41;;;;;;;6.63;1.63;;;17.00;92.40;;;;;;5027670;28;20149;-79
2021/05/04 09:13:27;;;;;;;5.50;1.38;;;17.30;90.50;;;;;;5001850;28;20349;-79
2021/05/04 09:16:12;;;;;;;5.45;1.77;;;17.10;83.90;;;;;;5017346;28;20045;-79
2021/05/04 09:21:10;;;;;;;12.03;1.83;;;16.40;85.30;;;;;;5020503;28;20116;-79
2021/05/04 09:23:43;;;;;;;6.65;1.50;;;16.70;88.00;;;;;;5015884;28;20640;-78
2021/05/04 09:26:19;;;;;;;8.60;1.98;;;16.90;86.20;;;;;;5014165;28;20037;-79
2021/05/04 09:28:49;;;;;;;4.55;1.75;;;17.10;82.00;;;;;;5018172;28;21811;-78
2021/05/04 09:31:24;;;;;;;5.30;1.40;;;17.20;81.40;;;;;;5018473;28;20022;-79
2021/05/04 09:33:50;;;;;;;10.20;1.38;;;17.10;81.30;;;;;;5016367;28;20096;-78
2021/05/04 09:36:41;;;;;;;3.97;1.45;;;17.00;81.30;;;;;;5015845;28;20495;-79
2021/05/04 09:39:09;;;;;;;4.05;1.40;;;17.10;81.60;;;;;;5017391;28;20041;-78
2021/05/04 09:41:35;;;;;;;3.50;1.10;;;17.10;80.70;;;;;;5019125;28;20330;-79
2021/05/04 09:44:01;;;;;;;2.75;0.90;;;17.10;78.70;;;;;;5018121;28;20037;-79
2021/05/04 09:46:44;;;;;;;2.92;0.90;;;17.30;79.10;;;;;;5016560;28;20033;-79
2021/05/04 09:49:34;;;;;;;3.53;1.10;;;17.20;74.90;;;;;;5019735;28;20460;-78
2021/05/04 09:53:00;;;;;;;3.28;0.82;;;17.20;75.10;;;;;;5019162;28;20130;-79
2021/05/04 09:55:08;;;;;;;3.40;0.90;;;17.30;77.00;;;;;;5007701;28;20045;-78
2021/05/04 09:57:43;;;;;;;7.10;1.17;;;17.30;70.70;;;;;;5019645;28;20069;-79
2021/05/04 10:00:15;;;;;;;5.75;1.30;;;17.40;74.40;;;;;;5016027;28;20127;-79
2021/05/04 10:02:41;;;;;;;6.30;1.00;;;17.60;71.10;;;;;;5017739;28;20025;-79
2021/05/04 10:05:10;;;;;;;3.85;1.05;;;17.80;76.00;;;;;;5016625;28;20058;-78
2021/05/04 10:07:37;;;;;;;5.30;1.00;;;17.80;71.00;;;;;;5014574;28;20029;-79
2021/05/04 10:10:04;;;;;;;16.08;1.65;;;17.70;72.60;;;;;;5017648;28;20057;-78
2021/05/04 10:12:31;;;;;;;5.88;1.33;;;17.30;70.90;;;;;;5018483;28;20076;-79
2021/05/04 10:15:00;;;;;;;3.50;0.88;;;17.50;68.80;;;;;;5015562;28;20103;-79
2021/05/04 10:17:30;;;;;;;3.10;0.90;;;17.70;65.10;;;;;;5016307;28;20030;-79
2021/05/04 10:19:55;;;;;;;3.42;1.25;;;18.10;72.50;;;;;;5013213;28;20038;-78
2021/05/04 10:22:22;;;;;;;3.05;0.93;;;18.10;70.50;;;;;;5015707;28;20529;-79
2021/05/04 10:24:49;;;;;;;4.07;1.17;;;17.80;67.90;;;;;;5009575;28;20029;-79
2021/05/04 10:27:18;;;;;;;3.97;1.15;;;18.30;71.00;;;;;;5010269;28;20083;-81
2021/05/04 10:29:48;;;;;;;6.32;0.90;;;18.60;72.10;;;;;;5012475;28;20086;-79
2021/05/04 10:32:14;;;;;;;7.63;1.02;;;18.50;68.10;;;;;;5015291;28;20061;-79
2021/05/04 10:34:41;;;;;;;10.20;1.05;;;17.60;65.30;;;;;;5017669;28;20029;-78
2021/05/04 10:37:13;;;;;;;2.70;0.65;;;18.30;68.40;;;;;;5020654;28;20138;-79
2021/05/04 10:39:41;;;;;;;3.92;0.80;;;18.30;66.40;;;;;;5016073;28;20029;-79
2021/05/04 10:42:10;;;;;;;3.50;1.02;;;18.10;66.20;;;;;;5020269;28;20483;-79
2021/05/04 10:44:54;;;;;;;4.38;0.90;;;18.30;67.80;;;;;;5018582;28;20037;-79
2021/05/04 10:47:38;;;;;;;3.22;0.93;;;18.30;66.60;;;;;;5014297;28;20442;-79
2021/05/04 10:50:07;;;;;;;2.33;0.73;;;18.20;67.10;;;;;;5018926;28;20041;-79
2021/05/04 10:52:52;;;;;;;3.45;0.82;;;17.50;67.00;;;;;;5018469;28;20029;-78
2021/05/04 10:55:22;;;;;;;5.10;0.88;;;17.40;68.60;;;;;;5018181;28;20033;-79
2021/05/04 10:58:05;;;;;;;2.45;1.00;;;17.80;67.80;;;;;;5019005;28;20092;-79
2021/05/04 11:03:34;;;;;;;3.72;1.35;;;18.30;67.90;;;;;;5019538;28;20147;-79
2021/05/04 11:06:06;;;;;;;4.00;1.27;;;18.50;68.90;;;;;;5019765;28;20515;-79
2021/05/04 11:08:44;;;;;;;4.43;0.65;;;18.40;66.50;;;;;;5021527;28;20037;-78
2021/05/04 11:11:37;;;;;;;4.15;0.90;;;18.60;66.10;;;;;;5018772;28;20163;-78
2021/05/04 11:14:04;;;;;;;3.47;0.80;;;19.00;65.30;;;;;;5018713;28;20443;-78
2021/05/04 11:16:48;;;;;;;3.45;0.80;;;18.50;63.00;;;;;;5020185;28;20030;-79
2021/05/04 11:19:18;;;;;;;4.45;1.10;;;18.30;63.60;;;;;;5023460;28;20045;-79
2021/05/04 11:21:51;;;;;;;3.70;0.80;;;18.30;65.30;;;;;;5025455;28;20053;-78
2021/05/04 11:24:17;;;;;;;3.08;0.90;;;18.10;61.30;;;;;;5019085;28;20049;-79
2021/05/04 11:27:03;;;;;;;2.40;0.93;;;18.10;62.60;;;;;;5021426;28;20363;-78
2021/05/04 11:29:32;;;;;;;5.18;0.98;;;18.10;63.40;;;;;;5002848;28;20101;-78
2021/05/04 11:32:25;;;;;;;2.50;1.00;;;18.40;63.90;;;;;;5020042;28;20028;-78
2021/05/04 11:34:50;;;;;;;2.55;0.80;;;18.30;60.90;;;;;;5020015;28;20037;-78
2021/05/04 11:37:19;;;;;;;5.70;1.35;;;18.40;62.40;;;;;;5019996;28;20056;-78
2021/05/04 11:39:55;;;;;;;3.90;0.70;;;18.50;62.30;;;;;;5014862;28;20128;-78
2021/05/04 11:42:39;;;;;;;4.45;0.95;;;18.60;63.70;;;;;;5019385;28;20071;-78
2021/05/04 11:45:05;;;;;;;6.93;0.98;;;18.60;64.50;;;;;;5014805;28;20137;-79
2021/05/04 11:47:31;;;;;;;2.78;0.90;;;18.50;65.40;;;;;;5019198;28;20506;-79
2021/05/04 11:50:06;;;;;;;3.35;0.80;;;18.20;63.50;;;;;;5020994;28;20045;-79
2021/05/04 11:52:32;;;;;;;4.13;0.80;;;18.10;63.40;;;;;;5017334;28;20067;-79
2021/05/04 11:55:31;;;;;;;4.95;0.80;;;18.10;63.10;;;;;;5017927;28;20036;-78
2021/05/04 11:57:59;;;;;;;2.85;0.70;;;18.20;65.80;;;;;;5022842;28;20526;-78
2021/05/04 12:00:27;;;;;;;2.53;0.85;;;18.30;63.70;;;;;;5021075;28;20549;-78
2021/05/04 12:02:53;;;;;;;4.20;0.93;;;17.60;63.80;;;;;;5017336;28;20483;-79
2021/05/04 12:05:45;;;;;;;2.03;0.77;;;17.90;64.50;;;;;;5017744;28;20054;-78
2021/05/04 12:08:11;;;;;;;;;;;18.00;63.40;;;;;;5014823;28;20192;-78
2021/05/04 12:10:50;;;;;;;2.97;0.80;;;17.90;66.30;;;;;;5013081;28;20701;-78
2021/05/04 12:13:22;;;;;;;2.78;0.80;;;18.10;67.30;;;;;;5021464;28;20033;-78
2021/05/04 12:15:53;;;;;;;4.95;1.00;;;18.10;67.40;;;;;;5018138;28;20136;-79
2021/05/04 12:18:23;;;;;;;6.50;0.95;;;18.00;67.20;;;;;;5022427;28;20033;-78
2021/05/04 12:21:03;;;;;;;3.53;0.90;;;18.10;67.20;;;;;;5020852;28;20382;-78
2021/05/04 12:23:35;;;;;;;3.67;0.80;;;18.10;66.70;;;;;;5019907;28;20026;-79
2021/05/04 12:26:07;;;;;;;4.93;1.00;;;18.30;66.80;;;;;;5020775;28;20037;-78
2021/05/04 12:28:54;;;;;;;4.47;0.80;;;18.20;67.50;;;;;;5021406;28;20041;-78
2021/05/04 12:31:30;;;;;;;2.67;0.95;;;18.00;69.10;;;;;;5015775;28;20037;-79
2021/05/04 12:33:56;;;;;;;3.53;0.73;;;18.10;68.70;;;;;;5020353;28;20065;-78
2021/05/04 12:36:49;;;;;;;7.32;1.00;;;18.10;68.20;;;;;;5019853;28;20064;-78
2021/05/04 12:39:30;;;;;;;2.65;1.00;;;18.20;69.10;;;;;;5014308;28;20597;-79
2021/05/04 12:41:59;;;;;;;4.65;1.42;;;18.30;68.30;;;;;;5025966;28;20071;-78
2021/05/04 12:44:33;;;;;;;3.00;0.90;;;18.10;67.60;;;;;;5025738;28;20033;-78
2021/05/04 12:47:05;;;;;;;4.18;0.85;;;18.10;67.40;;;;;;5025335;28;20033;-78
2021/05/04 12:49:39;;;;;;;2.55;0.68;;;18.20;67.80;;;;;;5023425;28;20502;-79
2021/05/04 12:52:12;;;;;;;5.03;0.77;;;18.10;65.90;;;;;;5023358;28;20033;-78
2021/05/04 12:54:39;;;;;;;4.65;1.00;;;18.30;67.60;;;;;;5022823;28;20037;-78
2021/05/04 12:57:26;;;;;;;3.47;0.70;;;18.50;66.50;;;;;;5021502;28;20029;-78
2021/05/04 12:59:53;;;;;;;2.25;0.70;;;18.50;66.90;;;;;;5025090;28;20121;-78
2021/05/04 13:02:23;;;;;;;3.10;0.73;;;18.10;65.10;;;;;;5021408;28;20144;-78